createdAt,value
2022-08-26T00:02:08.003Z,24.90
2022-08-26T00:04:35.847Z,24.80
2022-08-26T00:07:03.722Z,24.70
2022-08-26T00:09:33.893Z,24.50
2022-08-26T00:12:07.468Z,24.40
2022-08-26T00:14:36.745Z,24.30
2022-08-26T00:17:05.977Z,24.30
2022-08-26T00:19:36.461Z,24.20
2022-08-26T00:22:04.336Z,24.10
2022-08-26T00:24:32.609Z,24.10
2022-08-26T00:27:00.428Z,24.00
2022-08-26T00:29:28.981Z,24.00
2022-08-26T00:31:59.695Z,23.90
2022-08-26T00:34:29.694Z,23.80
2022-08-26T00:36:57.495Z,23.60
2022-08-26T00:39:25.327Z,23.60
2022-08-26T00:41:53.335Z,23.50
2022-08-26T00:44:21.529Z,23.50
2022-08-26T00:46:54.667Z,23.40
2022-08-26T00:49:28.411Z,23.50
2022-08-26T00:52:03.050Z,23.50
2022-08-26T00:54:37.433Z,23.50
2022-08-26T00:57:16.365Z,23.50
2022-08-26T00:59:46.935Z,23.60
2022-08-26T01:02:20.196Z,23.80
2022-08-26T01:04:55.451Z,23.80
2022-08-26T01:07:27.412Z,23.90
2022-08-26T01:09:58.348Z,24.00
2022-08-26T01:12:29.765Z,24.10
2022-08-26T01:14:57.602Z,24.00
2022-08-26T01:17:26.507Z,23.80
2022-08-26T01:20:01.000Z,23.70
2022-08-26T01:22:33.618Z,23.70
2022-08-26T01:25:03.893Z,23.70
2022-08-26T01:27:32.908Z,23.90
2022-08-26T01:30:03.120Z,24.00
2022-08-26T01:32:33.179Z,24.00
2022-08-26T01:35:01.807Z,24.20
2022-08-26T01:37:34.867Z,24.20
2022-08-26T01:40:07.107Z,24.30
2022-08-26T01:42:35.739Z,24.20
2022-08-26T01:45:10.044Z,24.20
2022-08-26T01:47:39.461Z,24.10
2022-08-26T01:50:18.001Z,24.20
2022-08-26T01:52:57.532Z,24.20
2022-08-26T01:55:33.185Z,24.20
2022-08-26T01:58:05.576Z,24.10
2022-08-26T02:00:35.191Z,24.20
2022-08-26T02:03:17.492Z,24.20
2022-08-26T02:05:47.390Z,24.20
2022-08-26T02:08:24.543Z,24.00
2022-08-26T02:10:55.042Z,24.10
2022-08-26T02:13:25.257Z,24.00
2022-08-26T02:15:54.066Z,24.00
2022-08-26T02:18:22.378Z,24.00
2022-08-26T02:21:10.913Z,24.00
2022-08-26T02:23:38.980Z,24.00
2022-08-26T02:26:11.929Z,24.00
2022-08-26T02:28:54.136Z,24.10
2022-08-26T02:31:22.528Z,24.00
2022-08-26T02:33:50.355Z,23.80
2022-08-26T02:36:20.898Z,23.70
2022-08-26T02:38:48.765Z,23.40
2022-08-26T02:41:18.152Z,23.40
2022-08-26T02:43:46.045Z,23.40
2022-08-26T02:46:21.474Z,23.40
2022-08-26T02:48:56.128Z,23.30
2022-08-26T02:51:24.311Z,23.30
2022-08-26T02:53:52.103Z,23.40
2022-08-26T02:56:21.231Z,23.10
2022-08-26T02:58:49.669Z,22.90
2022-08-26T03:01:22.906Z,23.00
2022-08-26T03:03:50.811Z,23.10
2022-08-26T03:06:19.381Z,23.10
2022-08-26T03:08:47.527Z,23.10
2022-08-26T03:11:15.672Z,23.00
2022-08-26T03:13:45.148Z,23.00
2022-08-26T03:16:14.196Z,23.10
2022-08-26T03:18:42.596Z,23.00
2022-08-26T03:21:12.817Z,22.90
2022-08-26T03:23:41.840Z,22.90
2022-08-26T03:26:12.468Z,22.90
2022-08-26T03:29:01.809Z,22.80
2022-08-26T03:31:30.647Z,22.90
2022-08-26T03:33:59.536Z,22.90
2022-08-26T03:36:28.120Z,22.80
2022-08-26T03:38:57.216Z,22.90
2022-08-26T03:41:25.276Z,22.90
2022-08-26T03:43:53.322Z,23.00
2022-08-26T03:46:21.563Z,23.00
2022-08-26T03:48:50.735Z,23.10
2022-08-26T03:51:20.537Z,23.10
2022-08-26T03:53:49.008Z,23.20
2022-08-26T03:56:16.904Z,23.10
2022-08-26T03:58:45.883Z,23.10
2022-08-26T04:01:16.225Z,23.10
2022-08-26T04:04:07.372Z,23.00
2022-08-26T04:06:39.416Z,23.00
2022-08-26T04:09:10.107Z,23.00
2022-08-26T04:11:39.622Z,23.00
2022-08-26T04:14:10.138Z,22.80
2022-08-26T04:16:38.820Z,22.80
2022-08-26T04:19:07.146Z,22.60
2022-08-26T04:21:38.177Z,22.50
2022-08-26T04:24:10.248Z,22.40
2022-08-26T04:26:42.825Z,22.40
2022-08-26T04:29:14.085Z,22.30
2022-08-26T04:31:42.005Z,22.50
2022-08-26T04:34:11.093Z,22.60
2022-08-26T04:36:40.909Z,22.80
2022-08-26T04:39:12.160Z,22.70
2022-08-26T04:41:40.127Z,22.70
2022-08-26T04:44:08.593Z,22.80
2022-08-26T04:46:39.871Z,22.90
2022-08-26T04:49:12.363Z,23.10
2022-08-26T04:51:41.723Z,23.10
2022-08-26T04:54:11.724Z,23.00
2022-08-26T04:56:42.611Z,23.10
2022-08-26T04:59:17.055Z,23.10
2022-08-26T05:01:47.784Z,23.10
2022-08-26T05:04:34.737Z,23.00
2022-08-26T05:07:05.767Z,23.00
2022-08-26T05:09:34.624Z,23.00
2022-08-26T05:12:02.446Z,23.10
2022-08-26T05:14:31.047Z,23.20
2022-08-26T05:16:58.895Z,23.10
2022-08-26T05:19:27.900Z,23.00
2022-08-26T05:21:55.960Z,23.00
2022-08-26T05:24:25.225Z,23.20
2022-08-26T05:26:53.059Z,23.10
2022-08-26T05:29:20.887Z,23.20
2022-08-26T05:31:52.524Z,23.30
2022-08-26T05:34:20.709Z,23.50
2022-08-26T05:36:48.590Z,23.60
2022-08-26T05:39:16.379Z,23.60
2022-08-26T05:41:45.819Z,23.60
2022-08-26T05:44:17.307Z,23.80
2022-08-26T05:46:45.913Z,23.90
2022-08-26T05:49:15.423Z,24.00
2022-08-26T05:51:46.298Z,24.10
2022-08-26T05:54:22.283Z,24.20
2022-08-26T05:56:51.842Z,24.20
2022-08-26T05:59:21.402Z,24.20
2022-08-26T06:01:52.485Z,24.20
2022-08-26T06:04:20.340Z,24.20
2022-08-26T06:06:48.696Z,24.30
2022-08-26T06:09:18.252Z,24.40
2022-08-26T06:11:46.140Z,24.50
2022-08-26T06:14:15.281Z,24.60
2022-08-26T06:16:45.084Z,24.60
2022-08-26T06:19:15.424Z,24.60
2022-08-26T06:21:46.019Z,24.60
2022-08-26T06:24:33.328Z,24.60
2022-08-26T06:27:04.179Z,24.80
2022-08-26T06:29:36.153Z,24.80
2022-08-26T06:32:06.704Z,24.90
2022-08-26T06:34:34.755Z,25.10
2022-08-26T06:37:03.617Z,25.10
2022-08-26T06:39:32.278Z,25.30
2022-08-26T06:42:00.460Z,25.50
2022-08-26T06:44:28.544Z,25.90
2022-08-26T06:46:57.880Z,26.70
2022-08-26T06:49:27.403Z,27.50
2022-08-26T06:51:57.893Z,28.20
2022-08-26T06:54:26.453Z,28.80
2022-08-26T06:56:56.628Z,28.90
2022-08-26T06:59:25.241Z,29.20
2022-08-26T07:01:53.546Z,29.40
2022-08-26T07:04:24.407Z,29.80
2022-08-26T07:06:53.809Z,30.00
2022-08-26T07:09:23.172Z,30.00
2022-08-26T07:11:52.134Z,30.30
2022-08-26T07:14:21.636Z,30.50
2022-08-26T07:16:50.604Z,30.50
2022-08-26T07:19:29.007Z,30.30
2022-08-26T07:22:03.277Z,30.50
2022-08-26T07:24:32.277Z,31.20
2022-08-26T07:27:01.919Z,31.90
2022-08-26T07:29:31.358Z,32.10
2022-08-26T07:31:59.641Z,32.60
2022-08-26T07:34:28.121Z,32.70
2022-08-26T07:36:56.723Z,32.30
2022-08-26T07:39:26.783Z,32.20
2022-08-26T07:41:55.065Z,32.40
2022-08-26T07:44:22.999Z,32.50
2022-08-26T07:46:53.498Z,32.70
2022-08-26T07:49:23.480Z,33.20
2022-08-26T07:51:52.148Z,33.50
2022-08-26T07:54:20.019Z,33.30
2022-08-26T07:56:54.088Z,33.10
2022-08-26T07:59:23.964Z,32.50
2022-08-26T08:01:52.331Z,32.20
2022-08-26T08:04:26.221Z,32.00
2022-08-26T08:06:54.969Z,31.90
2022-08-26T08:09:23.532Z,32.10
2022-08-26T08:11:54.151Z,32.30
2022-08-26T08:14:22.163Z,31.70
2022-08-26T08:16:51.204Z,31.60
2022-08-26T08:19:22.981Z,31.70
2022-08-26T08:21:51.856Z,31.70
2022-08-26T08:24:20.060Z,31.60
2022-08-26T08:26:48.612Z,31.60
2022-08-26T08:29:17.741Z,31.60
2022-08-26T08:31:56.948Z,31.60
2022-08-26T08:34:27.874Z,31.70
2022-08-26T08:36:55.939Z,31.40
2022-08-26T08:39:23.733Z,31.40
2022-08-26T08:42:15.989Z,31.30
2022-08-26T08:44:52.546Z,31.20
2022-08-26T08:47:28.971Z,31.20
2022-08-26T08:50:00.980Z,30.90
2022-08-26T08:52:31.513Z,30.90
2022-08-26T08:54:59.598Z,30.70
2022-08-26T08:57:32.858Z,30.70
2022-08-26T09:00:12.253Z,30.80
2022-08-26T09:02:47.638Z,30.80
2022-08-26T09:05:21.312Z,31.10
2022-08-26T09:07:54.672Z,31.30
2022-08-26T09:10:33.069Z,31.40
2022-08-26T09:13:07.523Z,31.30
2022-08-26T09:15:48.656Z,31.50
2022-08-26T09:18:34.447Z,31.60
2022-08-26T09:21:04.376Z,32.10
2022-08-26T09:23:34.116Z,32.70
2022-08-26T09:26:15.289Z,33.40
2022-08-26T09:28:46.800Z,34.30
2022-08-26T09:31:23.370Z,34.50
2022-08-26T09:34:07.078Z,34.80
2022-08-26T09:36:41.004Z,34.60
2022-08-26T09:39:26.379Z,34.50
2022-08-26T09:42:05.766Z,34.40
2022-08-26T09:44:35.210Z,34.60
2022-08-26T09:47:07.551Z,35.00
2022-08-26T09:49:38.184Z,35.50
2022-08-26T09:52:14.838Z,36.00
2022-08-26T09:54:44.243Z,36.00
2022-08-26T09:57:18.170Z,36.30
2022-08-26T09:59:46.457Z,36.30
2022-08-26T10:02:37.931Z,36.40
2022-08-26T10:05:10.577Z,36.20
2022-08-26T10:07:43.895Z,36.00
2022-08-26T10:10:16.870Z,36.10
2022-08-26T10:12:56.796Z,36.60
2022-08-26T10:15:27.343Z,37.20
2022-08-26T10:18:05.412Z,37.70
2022-08-26T10:20:37.471Z,37.70
2022-08-26T10:23:12.103Z,37.50
2022-08-26T10:25:48.117Z,37.10
2022-08-26T10:28:26.361Z,36.00
2022-08-26T10:30:59.561Z,35.60
2022-08-26T10:33:28.879Z,35.50
2022-08-26T10:36:00.039Z,35.70
2022-08-26T10:38:34.488Z,35.70
2022-08-26T10:41:09.763Z,35.90
2022-08-26T10:43:42.297Z,36.60
2022-08-26T10:46:16.988Z,37.20
2022-08-26T10:48:50.227Z,38.00
2022-08-26T10:51:24.636Z,38.40
2022-08-26T10:53:58.076Z,38.50
2022-08-26T10:56:38.187Z,38.80
2022-08-26T10:59:13.678Z,39.30
2022-08-26T11:01:50.996Z,39.10
2022-08-26T11:04:52.384Z,39.10
2022-08-26T11:07:40.624Z,39.30
2022-08-26T11:10:12.269Z,39.30
2022-08-26T11:12:55.787Z,39.40
2022-08-26T11:16:08.178Z,39.60
2022-08-26T11:18:55.790Z,39.40
2022-08-26T11:21:52.824Z,39.30
2022-08-26T11:24:46.469Z,39.20
2022-08-26T11:28:02.115Z,38.10
2022-08-26T11:30:56.906Z,38.00
2022-08-26T11:33:59.902Z,38.10
2022-08-26T11:36:43.843Z,38.80
2022-08-26T11:39:20.143Z,38.70
2022-08-26T11:41:52.837Z,38.30
2022-08-26T11:44:23.340Z,38.50
2022-08-26T11:46:58.039Z,38.50
2022-08-26T11:49:26.884Z,38.40
2022-08-26T11:52:09.261Z,38.30
2022-08-26T11:54:39.093Z,38.60
2022-08-26T11:57:13.227Z,38.50
2022-08-26T11:59:43.340Z,38.30
2022-08-26T12:02:17.932Z,38.50
2022-08-26T12:04:49.317Z,37.90
2022-08-26T12:07:18.512Z,37.10
2022-08-26T12:09:56.520Z,36.80
2022-08-26T12:12:30.753Z,36.40
2022-08-26T12:15:11.940Z,36.20
2022-08-26T12:17:40.795Z,36.00
2022-08-26T12:20:20.286Z,35.90
2022-08-26T12:22:48.483Z,35.60
2022-08-26T12:25:24.933Z,35.60
2022-08-26T12:27:54.019Z,35.50
2022-08-26T12:30:24.429Z,35.60
2022-08-26T12:33:10.835Z,35.50
2022-08-26T12:35:56.706Z,35.40
2022-08-26T12:38:25.711Z,35.40
2022-08-26T12:40:55.643Z,35.30
2022-08-26T12:43:41.764Z,35.40
2022-08-26T12:46:12.095Z,35.50
2022-08-26T12:48:43.860Z,35.80
2022-08-26T12:51:22.391Z,35.80
2022-08-26T12:53:50.299Z,35.80
2022-08-26T12:56:28.521Z,35.80
2022-08-26T12:59:21.782Z,35.90
2022-08-26T13:01:50.278Z,35.80
2022-08-26T13:04:36.610Z,35.90
2022-08-26T13:07:22.038Z,36.20
2022-08-26T13:09:51.068Z,36.10
2022-08-26T13:12:34.816Z,36.20
2022-08-26T13:15:04.274Z,36.40
2022-08-26T13:17:32.245Z,36.70
2022-08-26T13:20:04.013Z,36.90
2022-08-26T13:22:33.604Z,36.30
2022-08-26T13:25:01.434Z,36.00
2022-08-26T13:27:29.496Z,35.70
2022-08-26T13:29:59.695Z,35.40
2022-08-26T13:32:28.103Z,35.10
2022-08-26T13:34:57.651Z,34.50
2022-08-26T13:37:34.271Z,33.90
2022-08-26T13:40:03.998Z,33.60
2022-08-26T13:42:31.811Z,33.60
2022-08-26T13:45:01.002Z,33.80
2022-08-26T13:47:28.784Z,33.80
2022-08-26T13:49:57.069Z,33.80
2022-08-26T13:52:30.337Z,33.70
2022-08-26T13:54:58.851Z,33.70
2022-08-26T13:57:28.215Z,33.70
2022-08-26T13:59:58.801Z,33.80
2022-08-26T14:02:28.717Z,33.60
2022-08-26T14:04:56.543Z,33.50
2022-08-26T14:07:25.059Z,33.40
2022-08-26T14:09:52.877Z,33.50
2022-08-26T14:12:20.796Z,33.40
2022-08-26T14:14:48.655Z,33.40
2022-08-26T14:17:21.022Z,33.30
2022-08-26T14:19:51.422Z,33.20
2022-08-26T14:22:21.200Z,33.20
2022-08-26T14:24:50.153Z,32.90
2022-08-26T14:27:17.878Z,32.80
2022-08-26T14:29:45.679Z,32.70
2022-08-26T14:32:18.014Z,32.60
2022-08-26T14:34:50.895Z,32.50
2022-08-26T14:37:19.631Z,32.50
2022-08-26T14:39:48.061Z,32.40
2022-08-26T14:42:20.717Z,32.30
2022-08-26T14:44:53.657Z,32.20
2022-08-26T14:47:21.465Z,32.00
2022-08-26T14:49:50.658Z,32.00
2022-08-26T14:52:19.003Z,32.00
2022-08-26T14:54:45.819Z,31.90
2022-08-26T14:57:14.860Z,31.90
2022-08-26T14:59:50.261Z,31.70
2022-08-26T15:02:33.180Z,31.60
2022-08-26T15:05:04.331Z,31.30
2022-08-26T15:07:32.702Z,31.20
2022-08-26T15:10:00.601Z,31.00
2022-08-26T15:12:28.645Z,30.90
2022-08-26T15:14:56.474Z,30.90
2022-08-26T15:17:24.348Z,30.70
2022-08-26T15:19:52.437Z,30.70
2022-08-26T15:22:21.587Z,30.70
2022-08-26T15:24:51.774Z,30.70
2022-08-26T15:27:22.003Z,30.60
2022-08-26T15:29:49.800Z,30.50
2022-08-26T15:32:17.561Z,30.30
2022-08-26T15:34:45.680Z,30.20
2022-08-26T15:37:13.524Z,30.10
2022-08-26T15:39:43.132Z,30.10
2022-08-26T15:42:11.491Z,30.10
2022-08-26T15:44:44.454Z,30.40
2022-08-26T15:47:12.705Z,30.50
2022-08-26T15:49:40.824Z,30.60
2022-08-26T15:52:09.208Z,30.80
2022-08-26T15:54:37.398Z,30.90
2022-08-26T15:57:09.472Z,31.00
2022-08-26T15:59:39.265Z,31.20
2022-08-26T16:02:07.100Z,31.30
2022-08-26T16:04:35.396Z,31.30
2022-08-26T16:07:04.259Z,31.30
2022-08-26T16:09:32.101Z,31.30
2022-08-26T16:11:59.992Z,31.20
2022-08-26T16:14:29.143Z,31.10
2022-08-26T16:16:59.923Z,30.90
2022-08-26T16:19:27.919Z,31.00
2022-08-26T16:21:55.806Z,31.00
2022-08-26T16:24:28.433Z,30.70
2022-08-26T16:26:58.219Z,30.70
2022-08-26T16:29:26.073Z,30.60
2022-08-26T16:31:55.648Z,30.70
2022-08-26T16:34:23.619Z,30.70
2022-08-26T16:36:51.976Z,30.50
2022-08-26T16:39:19.849Z,30.20
2022-08-26T16:41:47.627Z,30.00
2022-08-26T16:44:15.516Z,29.90
2022-08-26T16:46:43.414Z,29.70
2022-08-26T16:49:12.511Z,29.60
2022-08-26T16:51:40.327Z,29.50
2022-08-26T16:54:09.168Z,29.30
2022-08-26T16:56:38.235Z,29.30
2022-08-26T16:59:09.180Z,29.20
2022-08-26T17:01:37.004Z,29.20
2022-08-26T17:04:05.111Z,28.90
2022-08-26T17:06:34.641Z,28.90
2022-08-26T17:09:02.448Z,28.80
2022-08-26T17:11:30.393Z,28.70
2022-08-26T17:13:58.227Z,28.70
2022-08-26T17:16:27.097Z,28.60
2022-08-26T17:18:56.113Z,28.70
2022-08-26T17:21:24.051Z,28.60
2022-08-26T17:23:53.268Z,28.60
2022-08-26T17:26:21.155Z,28.70
2022-08-26T17:28:48.976Z,28.70
2022-08-26T17:31:17.053Z,28.60
2022-08-26T17:33:48.885Z,28.50
2022-08-26T17:36:21.901Z,28.50
2022-08-26T17:38:50.264Z,28.40
2022-08-26T17:41:23.320Z,28.30
2022-08-26T17:43:51.078Z,28.20
2022-08-26T17:46:18.938Z,28.10
2022-08-26T17:48:46.807Z,28.10
2022-08-26T17:51:16.850Z,28.00
2022-08-26T17:53:44.834Z,27.90
2022-08-26T17:56:14.944Z,27.90
2022-08-26T17:58:47.984Z,27.90
2022-08-26T18:01:19.900Z,27.80
2022-08-26T18:03:47.925Z,27.70
2022-08-26T18:06:16.071Z,27.70
2022-08-26T18:08:43.973Z,27.70
2022-08-26T18:11:13.989Z,27.70
2022-08-26T18:13:47.158Z,27.70
2022-08-26T18:16:18.574Z,27.70
2022-08-26T18:18:47.392Z,27.60
2022-08-26T18:21:17.151Z,27.60
2022-08-26T18:23:45.508Z,27.60
2022-08-26T18:26:17.591Z,27.50
2022-08-26T18:28:45.398Z,27.50
2022-08-26T18:31:13.304Z,27.40
2022-08-26T18:33:43.753Z,27.30
2022-08-26T18:36:17.871Z,27.30
2022-08-26T18:38:46.030Z,27.20
2022-08-26T18:41:14.408Z,27.20
2022-08-26T18:43:42.365Z,27.30
2022-08-26T18:46:11.305Z,27.20
2022-08-26T18:48:40.566Z,27.20
2022-08-26T18:51:15.912Z,27.10
2022-08-26T18:53:43.564Z,27.10
2022-08-26T18:56:13.224Z,27.10
2022-08-26T18:58:44.044Z,27.00
2022-08-26T19:01:12.062Z,27.00
2022-08-26T19:03:40.077Z,27.00
2022-08-26T19:06:09.600Z,26.90
2022-08-26T19:08:37.366Z,26.90
2022-08-26T19:11:12.444Z,26.90
2022-08-26T19:13:42.026Z,26.90
2022-08-26T19:16:16.271Z,26.80
2022-08-26T19:18:44.372Z,26.80
2022-08-26T19:21:14.447Z,26.80
2022-08-26T19:23:42.287Z,26.80
2022-08-26T19:26:11.904Z,26.80
2022-08-26T19:28:40.710Z,26.80
2022-08-26T19:31:10.692Z,26.90
2022-08-26T19:33:39.471Z,26.90
2022-08-26T19:36:11.426Z,26.90
2022-08-26T19:38:43.676Z,26.70
2022-08-26T19:41:13.469Z,26.60
2022-08-26T19:43:41.489Z,26.70
2022-08-26T19:46:13.640Z,26.60
2022-08-26T19:48:43.869Z,26.50
2022-08-26T19:51:13.840Z,26.60
2022-08-26T19:53:43.675Z,26.50
2022-08-26T19:56:11.759Z,26.40
2022-08-26T19:58:39.861Z,26.40
2022-08-26T20:01:07.977Z,26.40
2022-08-26T20:03:36.621Z,26.30
2022-08-26T20:06:05.931Z,26.20
2022-08-26T20:08:33.850Z,26.10
2022-08-26T20:11:05.760Z,26.10
2022-08-26T20:13:34.036Z,26.10
2022-08-26T20:16:01.844Z,26.00
2022-08-26T20:18:47.136Z,26.00
2022-08-26T20:21:27.517Z,26.00
2022-08-26T20:24:00.512Z,26.00
2022-08-26T20:26:31.289Z,26.10
2022-08-26T20:28:59.826Z,26.10
2022-08-26T20:31:27.947Z,26.20
2022-08-26T20:33:56.515Z,26.20
2022-08-26T20:36:26.873Z,26.20
2022-08-26T20:38:55.544Z,26.20
2022-08-26T20:41:25.381Z,26.30
2022-08-26T20:43:54.587Z,26.20
2022-08-26T20:46:24.874Z,26.10
2022-08-26T20:48:53.350Z,26.10
2022-08-26T20:51:22.939Z,26.00
2022-08-26T20:53:51.207Z,25.90
2022-08-26T20:56:23.643Z,25.80
2022-08-26T20:58:58.615Z,25.80
2022-08-26T21:01:30.429Z,25.80
2022-08-26T21:03:58.560Z,25.80
2022-08-26T21:06:26.634Z,25.70
2022-08-26T21:08:54.736Z,25.70
2022-08-26T21:11:22.741Z,25.70
2022-08-26T21:14:15.892Z,25.70
2022-08-26T21:16:41.677Z,25.80
2022-08-26T21:19:11.922Z,25.80
2022-08-26T21:21:40.777Z,25.90
2022-08-26T21:24:09.476Z,26.00
2022-08-26T21:26:37.657Z,26.00
2022-08-26T21:29:06.608Z,26.00
2022-08-26T21:31:34.930Z,26.00
2022-08-26T21:34:04.384Z,25.90
2022-08-26T21:36:32.406Z,25.90
2022-08-26T21:39:01.248Z,25.90
2022-08-26T21:41:29.217Z,25.80
2022-08-26T21:43:59.076Z,25.80
2022-08-26T21:46:28.997Z,25.70
2022-08-26T21:48:59.603Z,25.70
2022-08-26T21:51:32.031Z,25.70
2022-08-26T21:54:01.381Z,25.80
2022-08-26T21:56:32.728Z,25.70
2022-08-26T21:59:01.452Z,25.60
2022-08-26T22:01:32.298Z,25.50
2022-08-26T22:04:00.511Z,25.50
2022-08-26T22:06:29.723Z,25.50
2022-08-26T22:08:58.048Z,25.60
2022-08-26T22:11:27.417Z,25.50
2022-08-26T22:13:56.734Z,25.50
2022-08-26T22:16:26.736Z,25.50
2022-08-26T22:18:54.672Z,25.50
2022-08-26T22:21:25.896Z,25.50
2022-08-26T22:23:56.159Z,25.50
2022-08-26T22:26:27.924Z,25.50
2022-08-26T22:28:58.770Z,25.50
2022-08-26T22:31:37.847Z,25.40
2022-08-26T22:34:07.736Z,25.30
2022-08-26T22:36:35.968Z,25.20
2022-08-26T22:39:10.553Z,25.20
2022-08-26T22:41:38.576Z,25.10
2022-08-26T22:44:06.396Z,25.00
2022-08-26T22:46:34.917Z,25.00
2022-08-26T22:49:04.400Z,25.00
2022-08-26T22:51:32.559Z,25.00
2022-08-26T22:54:00.537Z,24.90
2022-08-26T22:56:29.863Z,24.90
2022-08-26T22:58:57.624Z,24.90
2022-08-26T23:01:25.578Z,24.90
2022-08-26T23:03:53.460Z,24.90
2022-08-26T23:06:21.316Z,24.90
2022-08-26T23:08:49.295Z,25.00
2022-08-26T23:11:17.306Z,25.10
2022-08-26T23:13:46.424Z,25.00
2022-08-26T23:16:14.542Z,25.00
2022-08-26T23:18:42.963Z,25.00
2022-08-26T23:21:11.564Z,25.00
2022-08-26T23:23:39.721Z,25.10
2022-08-26T23:26:08.053Z,25.10
2022-08-26T23:28:36.651Z,24.90
2022-08-26T23:31:06.520Z,24.90
2022-08-26T23:33:48.380Z,24.80
2022-08-26T23:36:18.154Z,24.90
2022-08-26T23:38:52.807Z,24.90
2022-08-26T23:41:22.243Z,24.90
2022-08-26T23:43:50.215Z,24.80
2022-08-26T23:46:19.899Z,24.80
2022-08-26T23:48:47.998Z,24.70
2022-08-26T23:51:33.748Z,24.70
2022-08-26T23:54:01.555Z,24.70
2022-08-26T23:56:29.545Z,24.60
2022-08-26T23:58:57.426Z,24.60
